createdAt,value
2023-04-22T00:00:17.796Z,99.90
2023-04-22T00:02:45.814Z,99.90
2023-04-22T00:05:16.455Z,99.90
2023-04-22T00:07:45.837Z,99.90
2023-04-22T00:10:13.017Z,99.90
2023-04-22T00:12:40.513Z,99.90
2023-04-22T00:15:08.270Z,99.90
2023-04-22T00:17:35.308Z,99.90
2023-04-22T00:20:02.405Z,99.90
2023-04-22T00:22:29.442Z,99.90
2023-04-22T00:24:56.515Z,99.90
2023-04-22T00:27:23.623Z,99.90
2023-04-22T00:29:50.920Z,99.90
2023-04-22T00:32:19.274Z,99.90
2023-04-22T00:34:46.315Z,99.90
2023-04-22T00:37:13.490Z,99.90
2023-04-22T00:39:40.848Z,99.90
2023-04-22T00:42:08.130Z,99.90
2023-04-22T00:44:36.752Z,99.90
2023-04-22T00:47:04.683Z,99.90
2023-04-22T00:49:32.085Z,99.90
2023-04-22T00:51:59.428Z,99.90
2023-04-22T00:54:26.951Z,99.90
2023-04-22T00:56:54.040Z,99.90
2023-04-22T00:59:23.468Z,99.90
2023-04-22T01:01:51.377Z,99.90
2023-04-22T01:04:19.018Z,99.90
2023-04-22T01:06:47.987Z,99.90
2023-04-22T01:09:15.430Z,99.90
2023-04-22T01:11:42.844Z,99.90
2023-04-22T01:14:10.044Z,99.90
2023-04-22T01:16:39.085Z,99.90
2023-04-22T01:19:06.827Z,99.90
2023-04-22T01:21:35.691Z,99.90
2023-04-22T01:24:02.765Z,99.90
2023-04-22T01:26:30.344Z,99.90
2023-04-22T01:28:57.595Z,99.90
2023-04-22T01:31:24.926Z,99.90
2023-04-22T01:33:52.377Z,99.90
2023-04-22T01:36:19.649Z,99.90
2023-04-22T01:38:46.850Z,99.90
2023-04-22T01:41:14.972Z,99.90
2023-04-22T01:43:43.141Z,99.90
2023-04-22T01:46:10.469Z,99.90
2023-04-22T01:48:40.129Z,99.90
2023-04-22T01:51:07.288Z,99.90
2023-04-22T01:53:34.344Z,99.90
2023-04-22T01:56:02.178Z,99.90
2023-04-22T01:58:29.990Z,99.90
2023-04-22T02:00:57.206Z,99.90
2023-04-22T02:03:24.431Z,99.90
2023-04-22T02:05:51.609Z,99.90
2023-04-22T02:08:18.700Z,99.90
2023-04-22T02:10:45.731Z,99.90
2023-04-22T02:13:12.803Z,99.90
2023-04-22T02:15:41.380Z,99.90
2023-04-22T02:18:10.379Z,99.90
2023-04-22T02:20:37.883Z,99.90
2023-04-22T02:23:05.579Z,99.90
2023-04-22T02:25:32.590Z,99.90
2023-04-22T02:27:59.744Z,99.90
2023-04-22T02:30:26.817Z,99.90
2023-04-22T02:32:53.857Z,99.90
2023-04-22T02:35:20.979Z,99.90
2023-04-22T02:37:48.032Z,99.90
2023-04-22T02:40:15.098Z,99.90
2023-04-22T02:42:42.092Z,99.90
2023-04-22T02:45:09.482Z,99.90
2023-04-22T02:47:36.585Z,99.90
2023-04-22T02:50:03.880Z,99.90
2023-04-22T02:52:30.940Z,99.90
2023-04-22T02:54:57.917Z,99.90
2023-04-22T02:57:24.984Z,99.90
2023-04-22T02:59:52.104Z,99.90
2023-04-22T03:02:19.308Z,99.90
2023-04-22T03:04:46.402Z,99.90
2023-04-22T03:07:13.483Z,99.90
2023-04-22T03:09:41.074Z,99.90
2023-04-22T03:12:08.416Z,99.90
2023-04-22T03:14:35.484Z,99.90
2023-04-22T03:17:02.871Z,99.90
2023-04-22T03:19:29.981Z,99.90
2023-04-22T03:21:57.575Z,99.90
2023-04-22T03:24:24.659Z,99.90
2023-04-22T03:26:51.772Z,99.90
2023-04-22T03:29:18.839Z,99.90
2023-04-22T03:31:45.915Z,99.90
2023-04-22T03:34:12.994Z,99.90
2023-04-22T03:36:40.089Z,99.90
2023-04-22T03:39:07.230Z,99.90
2023-04-22T03:41:34.273Z,99.90
2023-04-22T03:44:02.107Z,99.90
2023-04-22T03:46:29.340Z,99.90
2023-04-22T03:48:56.466Z,99.90
2023-04-22T03:51:23.585Z,99.90
2023-04-22T03:53:50.681Z,99.90
2023-04-22T03:56:18.129Z,99.90
2023-04-22T03:58:45.126Z,99.90
2023-04-22T04:01:12.198Z,99.90
2023-04-22T04:03:39.499Z,99.90
2023-04-22T04:06:06.781Z,99.90
2023-04-22T04:08:33.822Z,99.90
2023-04-22T04:11:00.983Z,99.90
2023-04-22T04:13:32.472Z,99.90
2023-04-22T04:16:00.480Z,99.90
2023-04-22T04:18:29.755Z,99.90
2023-04-22T04:20:56.973Z,99.90
2023-04-22T04:23:24.043Z,99.90
2023-04-22T04:25:52.109Z,99.90
2023-04-22T04:28:19.755Z,99.90
2023-04-22T04:30:47.275Z,99.90
2023-04-22T04:33:16.837Z,99.90
2023-04-22T04:35:44.971Z,99.90
2023-04-22T04:38:13.027Z,99.90
2023-04-22T04:40:40.093Z,99.90
2023-04-22T04:43:08.907Z,99.90
2023-04-22T04:45:39.377Z,99.90
2023-04-22T04:48:10.114Z,99.90
2023-04-22T04:50:37.395Z,99.90
2023-04-22T04:53:04.832Z,99.90
2023-04-22T04:55:32.016Z,99.90
2023-04-22T04:57:59.163Z,99.90
2023-04-22T05:00:26.338Z,99.90
2023-04-22T05:02:53.439Z,99.90
2023-04-22T05:05:20.604Z,99.90
2023-04-22T05:07:47.683Z,99.90
2023-04-22T05:10:14.766Z,99.90
2023-04-22T05:12:41.893Z,99.90
2023-04-22T05:15:09.313Z,99.90
2023-04-22T05:17:36.339Z,99.90
2023-04-22T05:20:04.350Z,99.90
2023-04-22T05:22:31.430Z,99.90
2023-04-22T05:25:01.565Z,99.90
2023-04-22T05:27:28.747Z,99.90
2023-04-22T05:29:55.788Z,99.90
2023-04-22T05:32:22.954Z,99.90
2023-04-22T05:34:50.009Z,99.90
2023-04-22T05:37:17.132Z,99.90
2023-04-22T05:39:44.147Z,99.90
2023-04-22T05:42:11.514Z,99.90
2023-04-22T05:44:38.586Z,99.90
2023-04-22T05:47:05.720Z,99.90
2023-04-22T05:49:32.890Z,99.90
2023-04-22T05:52:00.061Z,99.90
2023-04-22T05:54:27.313Z,99.90
2023-04-22T05:56:54.421Z,99.90
2023-04-22T05:59:37.663Z,99.90
2023-04-22T06:02:04.899Z,99.90
2023-04-22T06:04:35.397Z,99.90
2023-04-22T06:07:04.792Z,99.90
2023-04-22T06:09:31.849Z,99.90
2023-04-22T06:11:59.148Z,99.90
2023-04-22T06:14:26.255Z,99.90
2023-04-22T06:16:55.213Z,99.90
2023-04-22T06:19:22.216Z,99.90
2023-04-22T06:21:49.290Z,99.90
2023-04-22T06:24:16.333Z,99.90
2023-04-22T06:26:43.636Z,99.90
2023-04-22T06:29:10.711Z,99.90
2023-04-22T06:31:37.835Z,99.90
2023-04-22T06:34:05.298Z,99.90
2023-04-22T06:36:37.455Z,99.90
2023-04-22T06:39:07.720Z,99.90
2023-04-22T06:41:34.809Z,99.90
2023-04-22T06:44:01.831Z,99.90
2023-04-22T06:46:29.334Z,99.90
2023-04-22T06:48:56.387Z,99.90
2023-04-22T06:51:23.505Z,99.90
2023-04-22T06:53:53.312Z,99.90
2023-04-22T06:56:20.623Z,99.90
2023-04-22T06:58:47.736Z,99.90
2023-04-22T07:01:14.780Z,99.90
2023-04-22T07:03:41.911Z,99.90
2023-04-22T07:06:09.493Z,99.90
2023-04-22T07:08:36.767Z,99.90
2023-04-22T07:11:03.917Z,99.90
2023-04-22T07:13:34.252Z,99.90
2023-04-22T07:16:01.720Z,99.90
2023-04-22T07:18:29.352Z,99.90
2023-04-22T07:20:56.392Z,99.90
2023-04-22T07:23:23.730Z,99.90
2023-04-22T07:25:50.898Z,99.90
2023-04-22T07:28:18.076Z,99.90
2023-04-22T07:30:46.991Z,99.90
2023-04-22T07:33:14.117Z,99.90
2023-04-22T07:35:42.357Z,99.90
2023-04-22T07:38:10.124Z,99.90
2023-04-22T07:40:38.175Z,99.90
2023-04-22T07:43:06.159Z,99.90
2023-04-22T07:45:33.828Z,99.90
2023-04-22T07:48:00.982Z,99.90
2023-04-22T07:50:28.168Z,99.90
2023-04-22T07:52:55.308Z,99.90
2023-04-22T07:55:22.330Z,99.90
2023-04-22T07:57:49.493Z,99.90
2023-04-22T08:00:17.187Z,99.90
2023-04-22T08:02:44.567Z,99.90
2023-04-22T08:05:11.841Z,99.90
2023-04-22T08:07:39.039Z,99.90
2023-04-22T08:10:07.128Z,99.90
2023-04-22T08:12:34.275Z,99.90
2023-04-22T08:15:01.301Z,99.90
2023-04-22T08:17:28.552Z,99.90
2023-04-22T08:19:55.657Z,99.90
2023-04-22T08:22:24.105Z,99.90
2023-04-22T08:24:51.263Z,99.90
2023-04-22T08:27:19.475Z,99.90
2023-04-22T08:29:46.572Z,99.90
2023-04-22T08:32:13.689Z,99.90
2023-04-22T08:34:40.953Z,99.90
2023-04-22T08:37:08.735Z,99.90
2023-04-22T08:39:35.883Z,99.90
2023-04-22T08:42:03.492Z,99.90
2023-04-22T08:44:30.769Z,99.90
2023-04-22T08:46:59.948Z,99.90
2023-04-22T08:49:30.300Z,99.90
2023-04-22T08:51:57.721Z,99.90
2023-04-22T08:54:25.440Z,99.90
2023-04-22T08:56:52.636Z,99.90
2023-04-22T08:59:22.701Z,99.90
2023-04-22T09:01:54.307Z,99.90
2023-04-22T09:04:21.705Z,99.90
2023-04-22T09:06:48.823Z,99.90
2023-04-22T09:09:16.160Z,99.90
2023-04-22T09:11:43.520Z,99.90
2023-04-22T09:14:10.640Z,99.90
2023-04-22T09:16:48.612Z,99.90
2023-04-22T09:19:15.971Z,99.90
2023-04-22T09:21:43.144Z,99.90
2023-04-22T09:24:11.936Z,99.90
2023-04-22T09:26:42.899Z,99.90
2023-04-22T09:29:15.674Z,99.90
2023-04-22T09:31:43.262Z,99.90
2023-04-22T09:34:10.411Z,99.90
2023-04-22T09:36:37.921Z,99.90
2023-04-22T09:39:10.130Z,99.90
2023-04-22T09:41:41.509Z,99.90
2023-04-22T09:44:16.111Z,99.90
2023-04-22T09:46:44.615Z,99.90
2023-04-22T09:49:11.957Z,99.90
2023-04-22T09:51:42.503Z,99.90
2023-04-22T09:54:11.583Z,99.90
2023-04-22T09:56:49.788Z,99.90
2023-04-22T09:59:25.528Z,99.90
2023-04-22T10:01:56.065Z,99.90
2023-04-22T10:04:25.703Z,99.90
2023-04-22T10:06:54.214Z,99.90
2023-04-22T10:09:24.581Z,99.50
2023-04-22T10:11:54.310Z,99.90
2023-04-22T10:14:25.479Z,99.90
2023-04-22T10:16:59.105Z,99.90
2023-04-22T10:19:27.615Z,99.90
2023-04-22T10:21:58.088Z,99.90
2023-04-22T10:24:29.364Z,99.90
2023-04-22T10:27:01.680Z,99.90
2023-04-22T10:29:40.719Z,99.90
2023-04-22T10:32:11.191Z,99.90
2023-04-22T10:34:42.594Z,99.20
2023-04-22T10:37:11.816Z,98.70
2023-04-22T10:39:41.107Z,98.60
2023-04-22T10:42:13.196Z,99.90
2023-04-22T10:44:49.223Z,98.60
2023-04-22T10:47:45.519Z,99.90
2023-04-22T10:50:21.606Z,99.00
2023-04-22T10:52:55.588Z,99.30
2023-04-22T10:55:23.000Z,98.40
2023-04-22T10:57:51.515Z,99.50
2023-04-22T11:00:24.724Z,99.30
2023-04-22T11:02:55.518Z,97.90
2023-04-22T11:05:27.746Z,98.70
2023-04-22T11:08:01.661Z,98.60
2023-04-22T11:10:43.071Z,98.10
2023-04-22T11:13:19.448Z,98.20
2023-04-22T11:15:54.267Z,98.40
2023-04-22T11:18:25.712Z,98.30
2023-04-22T11:20:53.893Z,98.60
2023-04-22T11:23:28.552Z,98.30
2023-04-22T11:25:56.324Z,97.50
2023-04-22T11:28:23.484Z,97.20
2023-04-22T11:30:51.417Z,97.90
2023-04-22T11:33:19.475Z,98.20
2023-04-22T11:35:49.291Z,97.90
2023-04-22T11:38:16.404Z,98.10
2023-04-22T11:40:47.056Z,99.00
2023-04-22T11:43:14.712Z,96.70
2023-04-22T11:45:42.443Z,95.10
2023-04-22T11:48:11.503Z,95.60
2023-04-22T11:50:44.829Z,95.80
2023-04-22T11:53:21.049Z,95.30
2023-04-22T11:55:53.731Z,95.40
2023-04-22T11:58:25.879Z,95.40
2023-04-22T12:00:54.373Z,96.60
2023-04-22T12:03:29.202Z,96.60
2023-04-22T12:06:00.592Z,96.30
2023-04-22T12:08:32.411Z,95.90
2023-04-22T12:11:02.020Z,96.30
2023-04-22T12:13:34.793Z,96.60
2023-04-22T12:16:07.167Z,96.30
2023-04-22T12:18:37.208Z,96.40
2023-04-22T12:21:15.156Z,96.50
2023-04-22T12:23:53.284Z,96.90
2023-04-22T12:26:24.539Z,96.20
2023-04-22T12:28:54.153Z,96.20
2023-04-22T12:31:21.830Z,96.70
2023-04-22T12:33:50.985Z,96.40
2023-04-22T12:36:21.083Z,97.30
2023-04-22T12:38:48.431Z,96.60
2023-04-22T12:41:16.266Z,98.20
2023-04-22T12:43:43.404Z,96.30
2023-04-22T12:46:10.937Z,95.70
2023-04-22T12:48:38.139Z,96.20
2023-04-22T12:51:06.634Z,96.60
2023-04-22T12:53:33.904Z,96.70
2023-04-22T12:56:01.079Z,96.40
2023-04-22T12:58:28.166Z,95.90
2023-04-22T13:00:55.287Z,96.50
2023-04-22T13:03:22.508Z,96.20
2023-04-22T13:05:49.827Z,96.70
2023-04-22T13:08:17.920Z,97.60
2023-04-22T13:10:45.105Z,96.30
2023-04-22T13:15:42.315Z,97.10
2023-04-22T13:18:09.869Z,97.50
2023-04-22T13:20:37.167Z,98.00
2023-04-22T13:23:04.945Z,98.30
2023-04-22T13:25:32.319Z,99.40
2023-04-22T13:27:59.529Z,99.40
2023-04-22T13:30:26.809Z,99.90
2023-04-22T13:32:53.996Z,99.90
2023-04-22T13:35:21.061Z,99.90
2023-04-22T13:37:48.075Z,99.90
2023-04-22T13:40:15.369Z,99.90
2023-04-22T13:42:44.553Z,99.90
2023-04-22T13:45:11.818Z,99.90
2023-04-22T13:47:38.943Z,99.90
2023-04-22T13:50:06.715Z,99.90
2023-04-22T13:52:34.133Z,99.90
2023-04-22T13:55:03.187Z,99.90
2023-04-22T13:57:30.757Z,99.90
2023-04-22T13:59:57.895Z,99.90
2023-04-22T14:02:25.027Z,99.90
2023-04-22T14:04:52.435Z,99.90
2023-04-22T14:07:19.992Z,99.90
2023-04-22T14:09:47.132Z,99.90
2023-04-22T14:12:14.364Z,99.90
2023-04-22T14:14:41.480Z,99.90
2023-04-22T14:17:10.222Z,99.90
2023-04-22T14:19:42.662Z,99.90
2023-04-22T14:22:09.943Z,99.90
2023-04-22T14:24:37.247Z,99.90
2023-04-22T14:27:04.631Z,99.90
2023-04-22T14:29:32.110Z,99.90
2023-04-22T14:31:59.727Z,99.90
2023-04-22T14:34:27.483Z,99.90
2023-04-22T14:36:54.845Z,99.90
2023-04-22T14:39:22.145Z,99.90
2023-04-22T14:41:49.438Z,99.90
2023-04-22T14:44:16.813Z,99.90
2023-04-22T14:46:44.005Z,99.90
2023-04-22T14:49:12.491Z,99.90
2023-04-22T14:51:39.610Z,99.90
2023-04-22T14:54:06.952Z,99.90
2023-04-22T14:56:34.004Z,99.90
2023-04-22T14:59:02.008Z,99.90
2023-04-22T15:01:29.224Z,99.90
2023-04-22T15:03:56.534Z,99.90
2023-04-22T15:06:23.908Z,99.90
2023-04-22T15:08:54.126Z,99.90
2023-04-22T15:11:22.310Z,99.90
2023-04-22T15:13:49.375Z,99.90
2023-04-22T15:16:16.592Z,99.90
2023-04-22T15:18:43.667Z,99.90
2023-04-22T15:21:10.782Z,99.90
2023-04-22T15:23:38.014Z,99.90
2023-04-22T15:26:09.123Z,99.90
2023-04-22T15:28:36.320Z,99.90
2023-04-22T15:31:03.607Z,99.90
2023-04-22T15:33:30.748Z,99.90
2023-04-22T15:35:57.758Z,99.90
2023-04-22T15:38:24.944Z,99.90
2023-04-22T15:40:52.018Z,99.90
2023-04-22T15:43:19.068Z,99.90
2023-04-22T15:45:46.357Z,99.90
2023-04-22T15:48:13.436Z,99.90
2023-04-22T15:50:41.121Z,99.90
2023-04-22T15:53:08.328Z,99.90
2023-04-22T15:55:35.440Z,99.90
2023-04-22T15:58:02.884Z,99.90
2023-04-22T16:00:29.986Z,99.90
2023-04-22T16:02:57.247Z,99.90
2023-04-22T16:05:25.287Z,99.90
2023-04-22T16:07:53.431Z,99.90
2023-04-22T16:10:21.391Z,99.90
2023-04-22T16:12:49.106Z,99.90
2023-04-22T16:15:16.730Z,99.90
2023-04-22T16:17:44.452Z,99.90
2023-04-22T16:20:11.895Z,99.90
2023-04-22T16:22:39.068Z,99.90
2023-04-22T16:25:07.055Z,99.90
2023-04-22T16:27:34.394Z,99.90
2023-04-22T16:30:02.090Z,99.90
2023-04-22T16:32:29.303Z,99.90
2023-04-22T16:34:56.381Z,99.90
2023-04-22T16:37:23.538Z,99.90
2023-04-22T16:39:51.761Z,99.90
2023-04-22T16:42:19.060Z,99.90
2023-04-22T16:44:46.272Z,99.90
2023-04-22T16:47:13.327Z,99.90
2023-04-22T16:49:40.736Z,99.90
2023-04-22T16:52:07.993Z,99.90
2023-04-22T16:54:35.876Z,99.90
2023-04-22T16:57:04.889Z,99.90
2023-04-22T16:59:32.034Z,99.90
2023-04-22T17:01:59.847Z,99.90
2023-04-22T17:04:27.271Z,99.90
2023-04-22T17:06:55.606Z,99.90
2023-04-22T17:09:22.743Z,99.90
2023-04-22T17:11:49.850Z,99.90
2023-04-22T17:14:16.996Z,99.90
2023-04-22T17:16:44.090Z,99.90
2023-04-22T17:19:11.652Z,99.90
2023-04-22T17:21:38.687Z,99.90
2023-04-22T17:24:06.243Z,99.90
2023-04-22T17:26:33.764Z,99.90
2023-04-22T17:29:00.879Z,99.90
2023-04-22T17:31:28.444Z,99.90
2023-04-22T17:33:55.591Z,99.90
2023-04-22T17:36:22.653Z,99.90
2023-04-22T17:38:49.779Z,99.90
2023-04-22T17:41:18.680Z,99.90
2023-04-22T17:43:45.707Z,99.90
2023-04-22T17:46:12.855Z,99.90
2023-04-22T17:48:41.198Z,99.90
2023-04-22T17:51:08.521Z,99.90
2023-04-22T17:53:37.541Z,99.90
2023-04-22T17:56:04.688Z,99.90
2023-04-22T17:58:31.826Z,99.90
2023-04-22T18:00:58.936Z,99.90
2023-04-22T18:03:26.506Z,99.90
2023-04-22T18:05:53.633Z,99.90
2023-04-22T18:08:20.640Z,99.90
2023-04-22T18:10:47.734Z,99.90
2023-04-22T18:13:14.867Z,99.90
2023-04-22T18:15:41.906Z,99.90
2023-04-22T18:18:09.008Z,99.90
2023-04-22T18:20:36.198Z,99.90
2023-04-22T18:23:03.428Z,99.90
2023-04-22T18:25:31.234Z,99.90
2023-04-22T18:27:58.433Z,99.90
2023-04-22T18:30:26.814Z,99.90
2023-04-22T18:32:54.029Z,99.90
2023-04-22T18:35:21.336Z,99.90
2023-04-22T18:37:48.475Z,99.90
2023-04-22T18:40:17.353Z,99.90
2023-04-22T18:42:45.093Z,99.90
2023-04-22T18:45:12.760Z,99.90
2023-04-22T18:47:39.981Z,99.90
2023-04-22T18:50:07.696Z,99.90
2023-04-22T18:52:34.915Z,99.90
2023-04-22T18:55:02.144Z,99.90
2023-04-22T18:57:29.504Z,99.90
2023-04-22T18:59:56.543Z,99.90
2023-04-22T19:02:24.269Z,99.90
2023-04-22T19:04:54.235Z,99.90
2023-04-22T19:07:21.538Z,99.90
2023-04-22T19:09:48.634Z,99.90
2023-04-22T19:12:19.068Z,99.90
2023-04-22T19:14:48.085Z,99.90
2023-04-22T19:17:15.263Z,99.90
2023-04-22T19:19:44.573Z,99.90
2023-04-22T19:22:12.680Z,99.90
2023-04-22T19:24:40.066Z,99.90
2023-04-22T19:27:12.489Z,99.90
2023-04-22T19:29:41.733Z,99.90
2023-04-22T19:32:11.085Z,99.90
2023-04-22T19:34:39.216Z,99.90
2023-04-22T19:37:06.882Z,99.90
2023-04-22T19:39:33.988Z,99.90
2023-04-22T19:42:04.486Z,99.90
2023-04-22T19:44:31.690Z,99.90
2023-04-22T19:46:58.928Z,99.90
2023-04-22T19:49:26.594Z,99.90
2023-04-22T19:51:54.793Z,99.90
2023-04-22T19:54:22.260Z,99.90
2023-04-22T19:56:49.582Z,99.90
2023-04-22T19:59:18.906Z,99.90
2023-04-22T20:01:47.176Z,99.90
2023-04-22T20:04:14.590Z,99.90
2023-04-22T20:06:45.067Z,99.90
2023-04-22T20:09:13.699Z,99.90
2023-04-22T20:11:41.623Z,99.90
2023-04-22T20:14:10.348Z,99.90
2023-04-22T20:16:37.864Z,99.90
2023-04-22T20:19:05.241Z,99.90
2023-04-22T20:21:36.118Z,99.90
2023-04-22T20:24:04.546Z,99.90
2023-04-22T20:26:33.166Z,99.90
2023-04-22T20:29:01.074Z,99.90
2023-04-22T20:31:29.157Z,99.90
2023-04-22T20:33:57.328Z,99.90
2023-04-22T20:36:26.676Z,99.90
2023-04-22T20:38:56.349Z,99.90
2023-04-22T20:41:24.834Z,99.90
2023-04-22T20:43:52.467Z,99.90
2023-04-22T20:46:22.253Z,99.90
2023-04-22T20:48:50.138Z,99.90
2023-04-22T20:51:17.165Z,99.90
2023-04-22T20:53:45.462Z,99.90
2023-04-22T20:56:13.393Z,99.90
2023-04-22T20:58:40.421Z,99.90
2023-04-22T21:01:09.912Z,99.90
2023-04-22T21:03:40.445Z,99.90
2023-04-22T21:06:09.320Z,99.90
2023-04-22T21:08:39.469Z,99.90
2023-04-22T21:11:07.257Z,99.90
2023-04-22T21:13:34.753Z,99.90
2023-04-22T21:16:08.585Z,99.90
2023-04-22T21:18:41.333Z,99.90
2023-04-22T21:21:10.056Z,99.90
2023-04-22T21:23:37.491Z,99.90
2023-04-22T21:26:05.725Z,99.90
2023-04-22T21:28:33.283Z,99.90
2023-04-22T21:31:00.683Z,99.90
2023-04-22T21:33:27.759Z,99.90
2023-04-22T21:35:55.673Z,99.90
2023-04-22T21:38:22.757Z,99.90
2023-04-22T21:40:49.915Z,99.90
2023-04-22T21:43:17.045Z,99.90
2023-04-22T21:45:44.129Z,99.90
2023-04-22T21:48:11.165Z,99.90
2023-04-22T21:50:38.328Z,99.90
2023-04-22T21:53:05.546Z,99.90
2023-04-22T21:55:32.616Z,99.90
2023-04-22T21:57:59.689Z,99.90
2023-04-22T22:00:27.007Z,99.90
2023-04-22T22:02:54.511Z,99.90
2023-04-22T22:05:21.678Z,99.90
2023-04-22T22:07:49.181Z,99.90
2023-04-22T22:10:20.887Z,99.90
2023-04-22T22:12:48.549Z,99.90
2023-04-22T22:15:16.642Z,99.90
2023-04-22T22:17:45.119Z,99.90
2023-04-22T22:20:14.437Z,99.90
2023-04-22T22:22:43.526Z,99.90
2023-04-22T22:25:13.844Z,99.90
2023-04-22T22:27:41.836Z,99.90
2023-04-22T22:30:09.385Z,99.90
2023-04-22T22:32:36.614Z,99.90
2023-04-22T22:35:04.589Z,99.90
2023-04-22T22:37:32.393Z,99.90
2023-04-22T22:39:59.966Z,99.90
2023-04-22T22:42:27.029Z,99.90
2023-04-22T22:44:54.801Z,99.90
2023-04-22T22:47:21.945Z,99.90
2023-04-22T22:49:49.058Z,99.90
2023-04-22T22:52:16.123Z,99.90
2023-04-22T22:54:43.519Z,99.90
2023-04-22T22:57:11.851Z,99.90
2023-04-22T22:59:39.388Z,99.90
2023-04-22T23:02:06.609Z,99.90
2023-04-22T23:04:33.924Z,99.90
2023-04-22T23:07:01.562Z,99.90
2023-04-22T23:09:28.568Z,99.90
2023-04-22T23:11:55.804Z,99.90
2023-04-22T23:14:23.690Z,99.90
2023-04-22T23:16:51.178Z,99.90
2023-04-22T23:19:18.546Z,99.90
2023-04-22T23:21:46.870Z,99.90
2023-04-22T23:24:16.061Z,99.90
2023-04-22T23:26:43.331Z,99.90
2023-04-22T23:29:10.674Z,99.90
2023-04-22T23:31:40.426Z,99.90
2023-04-22T23:34:07.820Z,99.90
2023-04-22T23:36:37.464Z,99.90
2023-04-22T23:39:09.851Z,99.90
2023-04-22T23:41:37.296Z,99.90
2023-04-22T23:44:04.345Z,99.90
2023-04-22T23:46:31.498Z,99.90
2023-04-22T23:48:59.119Z,99.90
2023-04-22T23:51:26.657Z,99.90
2023-04-22T23:53:53.723Z,99.90
2023-04-22T23:56:23.016Z,99.90
2023-04-22T23:58:54.549Z,99.90
